Time;durP1;ratioP1;P1;durP2;ratioP2;P2;SDS_P1;SDS_P2;PMS_P1;PMS_P2;Temp;Humidity;BMP_temperature;BMP_pressure;BME280_temperature;BME280_humidity;BME280_pressure;Samples;Min_cycle;Max_cycle;Signal;HPM_P1;HPM_P2
2022/01/14 00:00:34;;;;;;;36.30;15.73;;;;;;;-7.07;63.37;96104.25;5050960;28;20430;-75
2022/01/14 00:02:59;;;;;;;38.88;18.08;;;;;;;-6.98;62.98;96103.47;5041390;28;20055;-75
2022/01/14 00:05:24;;;;;;;31.80;15.68;;;;;;;-7.02;63.07;96110.19;5054914;28;20043;-75
2022/01/14 00:07:50;;;;;;;34.72;15.60;;;;;;;-6.96;63.40;96096.75;5089624;28;20024;-75
2022/01/14 00:10:15;;;;;;;38.65;16.10;;;;;;;-6.96;62.86;96101.78;5053681;28;20101;-75
2022/01/14 00:12:50;;;;;;;30.88;14.27;;;;;;;-7.00;63.02;96098.38;5054874;28;20032;-74
2022/01/14 00:15:26;;;;;;;30.15;14.57;;;;;;;-6.93;63.61;96106.03;5089329;28;20115;-75
2022/01/14 00:17:52;;;;;;;33.53;14.45;;;;;;;-6.93;63.49;96111.91;5055771;28;20036;-74
2022/01/14 00:20:19;;;;;;;34.05;15.38;;;;;;;-6.99;63.76;96106.84;5070433;28;20505;-75
2022/01/14 00:22:44;;;;;;;32.92;15.07;;;;;;;-6.90;64.16;96106.88;5041449;28;20026;-74
2022/01/14 00:33:16;;;;;;;29.27;13.63;;;;;;;-7.01;63.69;96129.56;5058125;28;20039;-74
2022/01/14 00:35:41;;;;;;;36.20;14.65;;;;;;;-7.03;64.03;96122.81;5070492;28;20512;-75
2022/01/14 00:38:08;;;;;;;33.17;14.57;;;;;;;-7.02;64.38;96127.00;5075833;28;20093;-75
2022/01/14 00:40:33;;;;;;;31.77;15.00;;;;;;;-7.13;64.26;96114.34;5075749;28;20493;-75
2022/01/14 00:42:59;;;;;;;34.38;14.90;;;;;;;-7.02;64.28;96132.94;5093918;28;20036;-75
2022/01/14 00:45:24;;;;;;;34.58;14.68;;;;;;;-7.01;64.80;96129.56;5075794;28;20059;-75
2022/01/14 00:47:50;;;;;;;33.70;15.05;;;;;;;-7.02;65.21;96114.38;5075178;28;20028;-75
2022/01/14 00:50:16;;;;;;;31.08;14.35;;;;;;;-6.90;64.59;96119.50;5075360;28;20036;-75
2022/01/14 00:52:42;;;;;;;32.67;14.15;;;;;;;-6.83;64.38;96111.13;5058861;28;20421;-75
2022/01/14 00:55:09;;;;;;;28.85;13.50;;;;;;;-6.93;64.02;96101.81;5075408;28;20040;-75
2022/01/14 01:00:19;;;;;;;28.95;13.30;;;;;;;-6.75;62.93;96122.09;5077999;28;20036;-75
2022/01/14 01:02:45;;;;;;;28.90;13.98;;;;;;;-6.75;63.34;96122.09;5041720;28;20119;-75
2022/01/14 01:05:12;;;;;;;29.70;13.20;;;;;;;-6.70;63.69;96128.88;5093589;28;20109;-75
2022/01/14 01:07:42;;;;;;;26.30;12.98;;;;;;;-6.78;62.94;96119.56;5075689;28;20082;-75
2022/01/14 01:10:09;;;;;;;31.08;13.30;;;;;;;-6.79;63.11;96115.34;5074945;28;20458;-73
2022/01/14 01:15:08;;;;;;;32.70;12.80;;;;;;;-6.77;62.97;96102.72;5074802;28;20032;-75
2022/01/14 01:17:34;;;;;;;26.95;13.85;;;;;;;-6.77;63.73;96093.47;5076244;28;20032;-75
2022/01/14 01:20:00;;;;;;;28.45;12.32;;;;;;;-6.80;63.12;96078.31;5056135;28;20071;-75
2022/01/14 01:22:26;;;;;;;30.23;13.07;;;;;;;-6.77;62.56;96093.47;5038150;28;20032;-75
2022/01/14 01:24:52;;;;;;;27.38;12.38;;;;;;;-6.79;62.61;96079.97;5074794;28;20036;-75
2022/01/14 01:27:19;;;;;;;28.05;12.75;;;;;;;-6.81;62.91;96086.69;5058071;28;20476;-75
2022/01/14 01:29:51;;;;;;;25.20;11.95;;;;;;;-6.81;63.17;96091.75;5058607;28;20118;-75
2022/01/14 01:32:18;;;;;;;25.92;12.25;;;;;;;-6.87;63.47;96066.47;5075418;28;20032;-74
2022/01/14 01:34:43;;;;;;;24.50;11.52;;;;;;;-6.83;63.57;96078.25;5040900;28;20032;-75
2022/01/14 01:37:09;;;;;;;27.50;12.52;;;;;;;-6.80;63.43;96069.84;5074140;28;20040;-75
2022/01/14 01:39:34;;;;;;;28.85;12.60;;;;;;;-6.79;63.87;96069.03;5057328;28;20557;-75
2022/01/14 01:42:05;;;;;;;23.55;12.10;;;;;;;-6.67;63.50;96081.69;5074872;28;20032;-75
2022/01/14 01:44:31;;;;;;;29.73;12.18;;;;;;;-6.63;64.32;96075.84;5052899;28;20407;-75
2022/01/14 01:46:57;;;;;;;23.63;11.75;;;;;;;-6.58;64.17;96083.41;5070341;28;20125;-75
2022/01/14 01:49:24;;;;;;;25.63;12.52;;;;;;;-6.59;64.44;96075.00;5092361;28;20031;-75
2022/01/14 01:51:50;;;;;;;31.60;13.60;;;;;;;-6.54;64.51;96064.91;5058949;28;20034;-75
2022/01/14 01:54:16;;;;;;;26.55;12.05;;;;;;;-6.49;63.90;96068.31;5057910;28;20225;-75
2022/01/14 01:56:42;;;;;;;25.88;12.43;;;;;;;-6.47;63.79;96056.50;5074270;28;20034;-75
2022/01/14 01:59:09;;;;;;;24.98;11.75;;;;;;;-6.47;63.60;96061.53;5074237;28;20383;-75
2022/01/14 02:01:34;;;;;;;25.42;11.93;;;;;;;-6.43;63.51;96058.19;5057448;28;20024;-75
2022/01/14 02:04:00;;;;;;;25.90;12.27;;;;;;;-6.47;63.85;96053.13;5055103;28;20471;-75
2022/01/14 02:06:25;;;;;;;29.60;12.80;;;;;;;-6.40;63.04;96053.16;5074223;28;20459;-75
2022/01/14 02:08:50;;;;;;;28.88;12.00;;;;;;;-6.45;63.16;96049.75;5074264;28;20501;-75
2022/01/14 02:11:16;;;;;;;25.00;12.23;;;;;;;-6.43;63.42;96044.72;5057162;28;20489;-75
2022/01/14 02:13:42;;;;;;;25.00;10.48;;;;;;;-6.44;63.25;96036.25;5056581;28;20020;-76
2022/01/14 02:19:11;;;;;;;26.05;11.27;;;;;;;-6.40;62.79;96027.03;5074158;28;20499;-75
2022/01/14 02:26:48;;;;;;;20.17;10.35;;;;;;;-6.43;63.04;96007.63;5073988;28;20024;-76
2022/01/14 02:29:14;;;;;;;21.52;10.68;;;;;;;-6.43;63.51;96012.69;5073925;28;20032;-76
2022/01/14 02:31:39;;;;;;;25.17;11.75;;;;;;;-6.40;63.59;96009.31;5073631;28;20043;-75
2022/01/14 02:34:04;;;;;;;23.25;11.02;;;;;;;-6.48;63.31;96009.28;5073112;28;20508;-76
2022/01/14 02:36:30;;;;;;;24.42;11.68;;;;;;;-6.51;63.28;95996.66;5073553;28;20486;-76
2022/01/14 02:38:55;;;;;;;29.35;12.43;;;;;;;-6.50;63.71;96003.38;5073543;28;20027;-75
2022/01/14 02:41:21;;;;;;;23.27;11.85;;;;;;;-6.46;64.34;96002.56;5073166;28;20039;-76
2022/01/14 02:43:46;;;;;;;23.83;11.48;;;;;;;-6.46;63.83;96006.75;5091246;28;20039;-76
2022/01/14 02:46:14;;;;;;;26.83;11.65;;;;;;;-6.53;64.02;95999.16;5073451;28;20035;-76
2022/01/14 02:48:40;;;;;;;22.58;10.80;;;;;;;-6.55;64.46;95998.34;5073119;28;20039;-73
2022/01/14 02:51:12;;;;;;;25.15;10.70;;;;;;;-6.55;64.47;95992.41;5091100;28;20024;-73
2022/01/14 02:56:07;;;;;;;29.58;11.93;;;;;;;-6.53;64.15;96000.84;5073360;28;20040;-73
2022/01/14 02:58:33;;;;;;;23.60;10.88;;;;;;;-6.53;65.08;95990.75;5073561;28;20501;-73
2022/01/14 03:01:11;;;;;;;29.20;12.40;;;;;;;-6.51;64.86;95978.94;5039843;28;20505;-74
2022/01/14 03:03:36;;;;;;;24.92;11.65;;;;;;;-6.49;64.46;95989.91;5072936;28;20512;-73
2022/01/14 03:06:02;;;;;;;27.52;12.88;;;;;;;-6.54;65.08;95978.94;5056697;28;20035;-73
2022/01/14 03:08:28;;;;;;;23.90;11.18;;;;;;;-6.52;63.92;95977.25;5073126;28;20055;-76
2022/01/14 03:11:18;;;;;;;20.60;10.43;;;;;;;-6.64;64.14;95957.00;5056143;28;20060;-73
2022/01/14 03:13:43;;;;;;;24.38;10.18;;;;;;;-6.55;63.55;95968.00;5045060;28;20052;-73
2022/01/14 03:16:09;;;;;;;20.00;9.80;;;;;;;-6.56;64.42;95960.41;5064167;28;20040;-74
2022/01/14 03:18:54;;;;;;;19.30;9.48;;;;;;;-6.58;65.43;95949.44;5090851;28;20028;-74
2022/01/14 03:21:28;;;;;;;25.58;10.93;;;;;;;-6.53;63.79;95962.94;5061985;28;20462;-73
2022/01/14 03:24:04;;;;;;;26.52;13.35;;;;;;;-6.66;64.59;95951.09;5054007;28;20028;-75
2022/01/14 03:26:29;;;;;;;29.80;11.93;;;;;;;-6.68;63.82;95946.06;5052945;28;20036;-76
2022/01/14 03:28:55;;;;;;;22.05;11.07;;;;;;;-6.60;65.03;95941.00;5072881;28;20101;-73
2022/01/14 03:31:20;;;;;;;21.15;9.75;;;;;;;-6.61;64.78;95927.50;5056333;28;20032;-74
2022/01/14 03:33:46;;;;;;;23.23;11.40;;;;;;;-6.63;65.01;95928.34;5036236;28;20033;-74
2022/01/14 03:36:12;;;;;;;24.02;11.80;;;;;;;-6.69;65.40;95940.97;5053397;28;20032;-74
2022/01/14 03:38:38;;;;;;;20.23;10.85;;;;;;;-6.57;65.79;95946.91;5072741;28;20028;-74
2022/01/14 03:41:03;;;;;;;20.77;10.00;;;;;;;-6.67;65.95;95936.78;5072391;28;20034;-74
2022/01/14 03:43:30;;;;;;;20.75;9.82;;;;;;;-6.67;65.63;95939.31;5055900;28;20058;-74
2022/01/14 03:45:56;;;;;;;20.80;10.57;;;;;;;-6.70;66.14;95930.03;5055639;28;20123;-74
2022/01/14 03:48:21;;;;;;;24.30;11.00;;;;;;;-6.72;66.03;95913.19;5072616;28;20036;-74
2022/01/14 03:50:47;;;;;;;24.85;11.15;;;;;;;-6.75;65.26;95921.59;5072468;28;20062;-75
2022/01/14 03:53:12;;;;;;;23.38;11.63;;;;;;;-6.77;66.09;95930.84;5072006;28;20048;-74
2022/01/14 03:55:39;;;;;;;32.15;13.27;;;;;;;-6.83;66.67;95914.00;5075996;28;20032;-74
2022/01/14 03:58:05;;;;;;;29.58;13.35;;;;;;;-6.80;66.97;95931.72;5076652;28;20024;-75
2022/01/14 04:00:30;;;;;;;28.42;11.98;;;;;;;-6.93;66.82;95930.00;5076378;28;20032;-76
2022/01/14 04:02:56;;;;;;;21.17;10.50;;;;;;;-6.91;65.98;95927.44;5061072;28;20028;-74
2022/01/14 04:05:21;;;;;;;21.27;10.70;;;;;;;-6.81;65.09;95930.00;5094677;28;20036;-76
2022/01/14 04:07:47;;;;;;;20.50;8.50;;;;;;;-6.76;65.48;95930.03;5094455;28;20032;-75
2022/01/14 04:10:13;;;;;;;18.13;9.73;;;;;;;-6.83;65.96;95926.63;5076054;28;20101;-75
2022/01/14 04:17:55;;;;;;;21.88;10.93;;;;;;;-6.68;65.91;95914.88;5094248;28;20120;-76
2022/01/14 04:20:21;;;;;;;22.45;11.45;;;;;;;-6.70;66.55;95901.38;5076822;28;20451;-75
2022/01/14 04:22:48;;;;;;;24.35;11.23;;;;;;;-6.69;66.53;95903.06;5042368;28;20027;-75
2022/01/14 04:25:14;;;;;;;20.73;10.23;;;;;;;-6.71;66.38;95892.09;5094124;28;20042;-75
2022/01/14 04:27:39;;;;;;;23.20;10.55;;;;;;;-6.76;66.28;95899.69;5059483;28;20028;-76
2022/01/14 04:30:05;;;;;;;23.20;10.52;;;;;;;-6.80;66.31;95898.00;5093986;28;20505;-76
2022/01/14 04:32:30;;;;;;;20.45;11.02;;;;;;;-6.83;66.07;95911.47;5075727;28;20484;-76
2022/01/14 04:34:56;;;;;;;24.48;12.50;;;;;;;-6.91;66.25;95887.03;5075833;28;20421;-76
2022/01/14 04:37:22;;;;;;;23.92;10.85;;;;;;;-6.89;66.46;95908.09;5058943;28;20554;-76
2022/01/14 04:39:47;;;;;;;24.27;11.48;;;;;;;-6.78;66.24;95919.91;5059127;28;20089;-76
2022/01/14 04:42:13;;;;;;;23.67;11.40;;;;;;;-6.77;66.48;95920.75;5075494;28;20497;-75
2022/01/14 04:44:38;;;;;;;19.98;10.13;;;;;;;-6.85;66.49;95892.94;5093629;28;20441;-76
2022/01/14 04:47:15;;;;;;;23.35;10.88;;;;;;;-6.75;66.77;95909.78;5057010;28;20032;-76
2022/01/14 04:49:41;;;;;;;24.40;12.05;;;;;;;-6.77;67.01;95910.63;5077393;28;20062;-76
2022/01/14 04:52:07;;;;;;;23.45;11.65;;;;;;;-6.84;66.06;95892.09;5075107;28;20040;-75
2022/01/14 04:54:33;;;;;;;26.85;13.25;;;;;;;-6.92;66.74;95888.72;5075487;28;20052;-75
2022/01/14 04:56:58;;;;;;;28.63;12.70;;;;;;;-6.84;66.72;95898.84;5058724;28;20031;-75
2022/01/14 04:59:24;;;;;;;22.25;11.05;;;;;;;-6.75;65.21;95897.16;5075301;28;20456;-76
2022/01/14 05:01:49;;;;;;;21.35;10.23;;;;;;;-6.60;64.92;95910.66;5037967;28;20032;-75
2022/01/14 05:04:16;;;;;;;20.50;10.77;;;;;;;-6.63;65.67;95892.97;5087753;28;20036;-75
2022/01/14 05:06:44;;;;;;;21.33;9.10;;;;;;;-6.57;64.24;95903.94;5058002;28;20118;-75
2022/01/14 05:09:19;;;;;;;22.83;12.10;;;;;;;-6.51;64.14;95895.50;5059202;28;20078;-75
2022/01/14 05:11:52;;;;;;;22.00;10.88;;;;;;;-6.51;64.40;95892.97;5045612;28;20081;-75
2022/01/14 05:14:18;;;;;;;21.55;10.07;;;;;;;-6.57;64.24;95872.75;5092863;28;20063;-75
2022/01/14 05:16:43;;;;;;;20.85;10.27;;;;;;;-6.50;64.66;95866.00;5071606;28;20493;-76
2022/01/14 05:19:08;;;;;;;20.63;10.30;;;;;;;-6.52;65.18;95879.50;5093084;28;20607;-75
2022/01/14 05:21:34;;;;;;;19.83;10.27;;;;;;;-6.45;65.76;95882.03;5093085;28;20027;-76
2022/01/14 05:23:59;;;;;;;22.35;10.50;;;;;;;-6.42;64.00;95867.69;5092949;28;20241;-75
2022/01/14 05:26:25;;;;;;;22.23;10.38;;;;;;;-6.49;65.23;95878.66;5057983;28;20479;-75
2022/01/14 05:28:50;;;;;;;39.17;16.38;;;;;;;-6.42;64.66;95879.50;5074962;28;20032;-75
2022/01/14 05:31:16;;;;;;;28.20;13.38;;;;;;;-6.43;64.39;95891.31;5074651;28;20055;-75
2022/01/14 05:33:45;;;;;;;23.35;11.15;;;;;;;-6.38;65.54;95898.88;5054658;28;20036;-75
2022/01/14 05:36:11;;;;;;;37.08;15.70;;;;;;;-6.39;64.67;95887.06;5058747;28;20040;-75
2022/01/14 05:38:36;;;;;;;29.60;13.50;;;;;;;-6.49;64.83;95890.44;5092753;28;20375;-76
2022/01/14 05:41:02;;;;;;;22.48;11.48;;;;;;;-6.48;64.14;95875.28;5074743;28;20537;-75
2022/01/14 05:43:27;;;;;;;24.52;12.45;;;;;;;-6.35;65.31;95894.69;5074485;28;20032;-75
2022/01/14 05:45:53;;;;;;;20.88;11.38;;;;;;;-6.76;66.22;95874.44;5055141;28;20047;-76
2022/01/14 05:48:18;;;;;;;25.67;12.70;;;;;;;-6.73;66.43;95881.16;5058175;28;20106;-75
2022/01/14 05:50:43;;;;;;;25.92;13.18;;;;;;;-6.71;66.24;95861.78;5054161;28;20028;-75
2022/01/14 05:53:10;;;;;;;22.92;11.63;;;;;;;-6.57;66.65;95882.88;5085993;28;20044;-75
2022/01/14 05:55:35;;;;;;;30.45;15.48;;;;;;;-6.73;66.74;95861.78;5073465;28;20032;-76
2022/01/14 05:58:01;;;;;;;27.73;13.07;;;;;;;-6.63;67.11;95877.78;5073456;28;20028;-75
2022/01/14 06:00:26;;;;;;;26.23;13.18;;;;;;;-6.70;66.96;95864.31;5073733;28;20032;-75
2022/01/14 06:02:52;;;;;;;19.73;9.55;;;;;;;-6.58;65.83;95878.63;5071067;28;20039;-75
2022/01/14 06:05:18;;;;;;;16.58;8.73;;;;;;;-6.54;65.57;95862.66;5077236;28;20032;-75
2022/01/14 06:07:43;;;;;;;33.55;14.68;;;;;;;-6.41;65.97;95860.94;5054394;28;20032;-75
2022/01/14 06:10:09;;;;;;;36.30;19.05;;;;;;;-6.44;65.31;95851.66;5056660;28;20032;-76
2022/01/14 06:12:34;;;;;;;39.90;18.40;;;;;;;-6.33;65.27;95865.16;5036439;28;20033;-75
2022/01/14 06:15:00;;;;;;;34.78;17.33;;;;;;;-6.32;65.98;95874.44;5053397;28;20043;-75
2022/01/14 06:17:26;;;;;;;65.32;33.38;;;;;;;-6.42;66.80;95872.75;5072209;28;20028;-75
2022/01/14 06:19:51;;;;;;;64.55;30.65;;;;;;;-6.42;66.08;95855.03;5071075;28;20050;-76
2022/01/14 06:22:17;;;;;;;70.43;32.10;;;;;;;-6.44;66.96;95873.59;5056541;28;20081;-75
2022/01/14 06:24:42;;;;;;;85.03;36.88;;;;;;;-6.42;65.40;95872.75;5052987;28;20039;-75
2022/01/14 06:27:08;;;;;;;74.90;33.85;;;;;;;-6.32;65.80;95871.06;5055282;28;20028;-75
2022/01/14 06:29:33;;;;;;;68.22;32.13;;;;;;;-6.30;65.78;95846.59;5072422;28;20028;-76
2022/01/14 06:31:59;;;;;;;72.22;31.23;;;;;;;-6.15;66.53;95859.25;5072382;28;20101;-75
2022/01/14 06:34:24;;;;;;;77.43;33.53;;;;;;;-6.10;66.71;95869.34;5091543;28;20032;-75
2022/01/14 06:36:49;;;;;;;79.20;32.17;;;;;;;-6.04;66.72;95853.31;5033704;28;20095;-76
2022/01/14 06:39:15;;;;;;;71.25;29.55;;;;;;;-5.90;66.33;95857.47;5036179;28;20444;-75
2022/01/14 06:41:40;;;;;;;64.18;29.83;;;;;;;-5.85;66.31;95859.97;5019765;28;20039;-76
2022/01/14 06:44:06;;;;;;;58.58;25.75;;;;;;;-5.84;66.63;95828.78;5056345;28;20040;-76
2022/01/14 06:46:31;;;;;;;66.22;28.50;;;;;;;-5.69;66.98;95848.97;5079428;28;20436;-75
2022/01/14 06:48:57;;;;;;;74.97;33.72;;;;;;;-5.62;66.46;95842.22;5071616;28;20032;-75
2022/01/14 06:51:22;;;;;;;67.45;30.52;;;;;;;-5.58;66.46;95836.28;5050803;28;20067;-75
2022/01/14 06:53:48;;;;;;;57.25;28.05;;;;;;;-5.45;65.99;95845.50;5051420;28;20059;-76
2022/01/14 06:56:14;;;;;;;72.35;34.58;;;;;;;-5.47;66.61;95839.59;5067930;28;20038;-76
2022/01/14 06:58:40;;;;;;;85.72;38.45;;;;;;;-5.31;66.10;95855.56;5056122;28;20032;-75
2022/01/14 07:01:06;;;;;;;120.07;49.92;;;;;;;-5.26;65.83;95850.50;5071738;28;20043;-76
2022/01/14 07:03:31;;;;;;;118.10;50.65;;;;;;;-5.18;66.38;95828.50;5071786;28;20497;-76
2022/01/14 07:05:57;;;;;;;137.07;55.30;;;;;;;-5.17;66.00;95817.50;5072254;28;20485;-76
2022/01/14 07:08:22;;;;;;;167.60;62.42;;;;;;;-5.12;66.78;95808.19;5053507;28;20028;-76
2022/01/14 07:10:48;;;;;;;159.23;59.42;;;;;;;-4.99;66.62;95814.00;5072039;28;20032;-75
2022/01/14 07:13:13;;;;;;;129.75;52.72;;;;;;;-4.90;66.33;95810.56;5054999;28;20493;-75
2022/01/14 07:15:39;;;;;;;129.27;51.90;;;;;;;-4.88;66.33;95798.72;5072045;28;20504;-76
2022/01/14 07:18:04;;;;;;;124.28;52.15;;;;;;;-4.74;65.57;95814.66;5090260;28;20443;-75
2022/01/14 07:20:29;;;;;;;138.93;56.65;;;;;;;-4.72;65.21;95790.16;5072656;28;20036;-75
2022/01/14 07:22:55;;;;;;;115.07;49.25;;;;;;;-4.60;64.13;95787.50;5054330;28;20032;-76
2022/01/14 07:25:20;;;;;;;93.60;43.47;;;;;;;-4.51;64.90;95791.69;5069116;28;20032;-76
2022/01/14 07:27:46;;;;;;;102.07;44.97;;;;;;;-4.59;65.40;95773.16;5055505;28;20421;-75
2022/01/14 07:30:14;;;;;;;130.65;53.33;;;;;;;-4.43;65.05;95784.84;5054742;28;20394;-75
2022/01/14 07:32:40;;;;;;;156.75;62.63;;;;;;;-4.31;64.87;95802.47;5055514;28;20559;-75
2022/01/14 07:35:05;;;;;;;159.68;62.25;;;;;;;-4.19;64.27;95808.28;5071167;28;20028;-75
2022/01/14 07:37:31;;;;;;;109.78;49.00;;;;;;;-4.18;63.20;95810.84;5073394;28;20533;-75
2022/01/14 07:39:56;;;;;;;124.53;54.83;;;;;;;-4.21;62.49;95795.59;5111232;28;20032;-76
2022/01/14 07:42:22;;;;;;;120.80;54.17;;;;;;;-4.11;63.12;95801.44;5091040;28;20040;-76
2022/01/14 07:44:47;;;;;;;129.23;56.28;;;;;;;-4.02;64.13;95795.44;5055682;28;20067;-75
2022/01/14 07:47:13;;;;;;;139.55;59.92;;;;;;;-4.10;63.61;95768.41;5090932;28;20077;-75
2022/01/14 07:49:38;;;;;;;160.07;64.28;;;;;;;-3.93;63.29;95769.94;5090859;28;20035;-75
2022/01/14 07:52:04;;;;;;;140.80;59.67;;;;;;;-3.82;63.43;95783.34;5072719;28;20078;-75
2022/01/14 07:54:29;;;;;;;177.38;71.38;;;;;;;-3.79;64.30;95775.69;5072849;28;20125;-75
2022/01/14 07:56:59;;;;;;;168.30;73.35;;;;;;;-3.73;64.05;95773.09;5072695;28;20051;-76
2022/01/14 07:59:25;;;;;;;161.60;69.43;;;;;;;-3.72;64.10;95768.88;5089977;28;20032;-76
2022/01/14 08:01:51;;;;;;;129.73;55.70;;;;;;;-3.73;64.28;95773.09;5050988;28;20410;-75
2022/01/14 08:04:18;;;;;;;136.65;57.67;;;;;;;-3.69;64.40;95758.66;5056579;28;20024;-75
2022/01/14 08:06:46;;;;;;;130.85;56.17;;;;;;;-3.55;64.16;95772.03;5055454;28;20492;-76
2022/01/14 08:09:12;;;;;;;185.82;76.50;;;;;;;-3.47;64.08;95770.22;5056774;28;20028;-78
2022/01/14 08:11:38;;;;;;;121.43;52.90;;;;;;;-3.48;63.28;95765.16;5052275;28;20024;-76
2022/01/14 08:14:03;;;;;;;118.13;46.05;;;;;;;-3.33;63.02;95757.34;5058681;28;20035;-77
2022/01/14 08:16:28;;;;;;;187.77;75.60;;;;;;;-3.28;65.36;95760.66;5072193;28;20031;-76
2022/01/14 08:18:54;;;;;;;148.95;60.35;;;;;;;-3.21;64.39;95762.25;5055138;28;20139;-76
2022/01/14 08:21:19;;;;;;;150.88;58.72;;;;;;;-3.18;64.72;95741.84;5090586;28;20078;-76
2022/01/14 08:23:45;;;;;;;129.45;54.08;;;;;;;-3.04;64.80;95746.75;5090960;28;20040;-76
2022/01/14 08:26:10;;;;;;;165.05;71.03;;;;;;;-3.03;66.27;95738.28;5071752;28;20078;-76
2022/01/14 08:28:36;;;;;;;162.88;70.70;;;;;;;-3.02;64.90;95729.75;5055712;28;20069;-76
2022/01/14 08:31:01;;;;;;;131.00;55.00;;;;;;;-2.80;64.12;95748.06;5071433;28;20028;-76
2022/01/14 08:33:27;;;;;;;147.77;63.80;;;;;;;-2.75;64.77;95743.75;5090811;28;20036;-76
2022/01/14 08:35:52;;;;;;;149.77;60.10;;;;;;;-2.67;64.90;95738.56;5090422;28;20032;-76
2022/01/14 08:38:18;;;;;;;134.13;57.88;;;;;;;-2.56;64.66;95736.66;5072410;28;20455;-76
2022/01/14 08:40:44;;;;;;;73.38;34.97;;;;;;;-2.58;64.48;95701.94;5056188;28;20401;-75
2022/01/14 08:43:09;;;;;;;46.97;22.67;;;;;;;-2.32;63.89;95724.38;5093970;28;20047;-75
2022/01/14 08:45:35;;;;;;;58.15;24.13;;;;;;;-2.37;64.66;95711.72;5075981;28;20485;-76
2022/01/14 08:48:00;;;;;;;67.20;26.63;;;;;;;-2.20;64.65;95738.56;5042579;28;20100;-76
2022/01/14 08:50:35;;;;;;;47.13;19.80;;;;;;;-2.12;63.49;95736.72;5059276;28;20524;-76
2022/01/14 08:53:01;;;;;;;52.22;22.60;;;;;;;-2.09;63.86;95729.88;5075592;28;20052;-76
2022/01/14 08:55:27;;;;;;;45.75;21.33;;;;;;;-1.99;63.85;95722.06;5059246;28;20061;-75
2022/01/14 08:57:52;;;;;;;47.25;19.17;;;;;;;-1.83;62.42;95721.72;5059062;28;20028;-76
2022/01/14 09:00:18;;;;;;;55.33;21.58;;;;;;;-1.81;62.74;95717.44;5059154;28;20054;-76
2022/01/14 09:02:44;;;;;;;76.10;29.88;;;;;;;-1.75;63.12;95719.03;5058903;28;20043;-76
2022/01/14 09:05:10;;;;;;;67.82;26.35;;;;;;;-1.73;62.96;95709.63;5075637;28;20478;-76
2022/01/14 09:07:36;;;;;;;60.15;24.40;;;;;;;-1.76;63.04;95698.66;5093859;28;20024;-76
2022/01/14 09:10:02;;;;;;;46.28;19.45;;;;;;;-1.63;62.53;95711.13;5075609;28;20550;-76
2022/01/14 09:12:27;;;;;;;60.20;25.48;;;;;;;-1.68;63.07;95690.00;5058880;28;20028;-76
2022/01/14 09:14:53;;;;;;;46.45;19.63;;;;;;;-1.46;63.23;95689.53;5093595;28;20425;-76
2022/01/14 09:17:18;;;;;;;75.55;29.80;;;;;;;-1.37;63.59;95702.06;5075387;28;20028;-76
2022/01/14 09:19:44;;;;;;;46.97;20.20;;;;;;;-1.34;64.18;95681.59;5075217;28;20032;-76
2022/01/14 09:22:10;;;;;;;53.80;22.45;;;;;;;-1.27;64.67;95693.34;5058731;28;20118;-76
2022/01/14 09:24:36;;;;;;;70.32;26.30;;;;;;;-1.19;64.64;95695.72;5075415;28;20471;-76
2022/01/14 09:27:01;;;;;;;69.20;27.13;;;;;;;-1.08;64.20;95691.22;5075243;28;20032;-76
2022/01/14 09:29:27;;;;;;;57.03;21.73;;;;;;;-0.96;63.95;95688.38;5058463;28;20156;-76
2022/01/14 09:31:54;;;;;;;48.90;20.33;;;;;;;-0.98;63.89;95651.84;5093237;28;20035;-76
2022/01/14 09:34:20;;;;;;;41.90;18.70;;;;;;;-0.75;65.35;95675.97;5093169;28;20040;-76
2022/01/14 09:36:45;;;;;;;37.80;16.13;;;;;;;-0.66;66.82;95662.97;5093128;28;20028;-77
2022/01/14 09:39:11;;;;;;;30.25;12.60;;;;;;;-0.44;66.64;95655.63;5092937;28;20028;-76
2022/01/14 09:41:36;;;;;;;33.75;15.18;;;;;;;-0.15;65.14;95661.66;5074949;28;20127;-76
2022/01/14 09:44:02;;;;;;;43.25;16.98;;;;;;;0.02;63.52;95656.06;5092943;28;20432;-76
2022/01/14 09:46:28;;;;;;;43.05;18.13;;;;;;;0.09;64.88;95657.56;5075013;28;20043;-76
2022/01/14 09:48:53;;;;;;;38.35;16.25;;;;;;;0.26;64.00;95650.25;5058302;28;20417;-76
2022/01/14 09:51:19;;;;;;;39.17;14.10;;;;;;;0.37;63.55;95666.09;5041908;28;20413;-77
2022/01/14 09:53:44;;;;;;;27.38;12.95;;;;;;;0.50;63.90;95650.41;5074352;28;20083;-77
2022/01/14 09:56:13;;;;;;;27.30;9.63;;;;;;;0.50;63.71;95647.84;5058198;28;20028;-77
2022/01/14 09:58:45;;;;;;;25.92;11.60;;;;;;;0.61;64.12;95646.66;5058223;28;20315;-77
2022/01/14 10:01:14;;;;;;;26.42;11.05;;;;;;;0.76;63.74;95631.72;5092764;28;20078;-76
2022/01/14 10:03:48;;;;;;;20.92;9.65;;;;;;;1.01;62.95;95621.53;5058431;28;20618;-77
2022/01/14 10:06:32;;;;;;;24.92;12.65;;;;;;;1.06;62.47;95611.97;5092663;28;20073;-75
2022/01/14 10:09:11;;;;;;;20.92;11.82;;;;;;;1.19;62.02;95609.84;5060361;28;20471;-77
2022/01/14 10:11:38;;;;;;;25.08;12.10;;;;;;;1.28;62.92;95614.63;5042509;28;20024;-76
2022/01/14 10:14:17;;;;;;;51.80;20.50;;;;;;;1.33;62.36;95594.84;5074526;28;20028;-76
2022/01/14 10:16:43;;;;;;;16.05;8.52;;;;;;;1.48;61.40;95608.88;5042760;28;20100;-76
2022/01/14 10:19:23;;;;;;;14.98;8.23;;;;;;;1.46;61.12;95605.50;5057694;28;20060;-75
2022/01/14 10:21:49;;;;;;;23.48;10.27;;;;;;;1.33;61.18;95575.19;5074437;28;20028;-76
2022/01/14 10:24:15;;;;;;;14.25;7.22;;;;;;;1.55;61.72;95584.69;5092192;28;20094;-76
2022/01/14 10:26:56;;;;;;;26.42;15.35;;;;;;;1.63;62.14;95581.88;5057518;28;20469;-76
2022/01/14 10:29:38;;;;;;;15.73;10.13;;;;;;;1.66;61.31;95574.06;5074094;28;20020;-76
2022/01/14 10:32:05;;;;;;;20.70;13.02;;;;;;;1.57;60.86;95575.25;5073978;28;20410;-76
2022/01/14 10:34:30;;;;;;;19.45;11.48;;;;;;;1.64;61.46;95569.00;5040813;28;20027;-76
2022/01/14 10:37:12;;;;;;;14.77;9.52;;;;;;;1.75;62.10;95566.03;5073773;28;20035;-76
2022/01/14 10:39:43;;;;;;;;;;;;;;;1.88;60.34;95563.88;5074792;28;20160;-76
2022/01/14 10:42:21;;;;;;;;;;;;;;;1.88;60.64;95561.31;5092578;28;20461;-76
2022/01/14 10:44:47;;;;;;;12.60;5.90;;;;;;;1.95;60.36;95565.31;5091870;28;19912;-75
2022/01/14 10:47:17;;;;;;;10.05;6.57;;;;;;;2.02;60.88;95553.94;5073724;28;20085;-76
2022/01/14 10:49:43;;;;;;;14.52;8.27;;;;;;;2.02;60.98;95543.69;5057569;28;20028;-76
2022/01/14 10:52:18;;;;;;;13.55;8.25;;;;;;;2.18;60.47;95555.03;5056937;28;20066;-76
2022/01/14 10:54:49;;;;;;;25.55;18.85;;;;;;;2.11;60.16;95535.66;5091756;28;20066;-76
2022/01/14 10:57:21;;;;;;;18.92;11.75;;;;;;;2.26;59.93;95541.06;5057320;28;20047;-76
2022/01/14 10:59:47;;;;;;;10.35;5.40;;;;;;;2.07;59.23;95518.72;5073492;28;20052;-76
2022/01/14 11:02:31;;;;;;;12.00;7.80;;;;;;;2.30;59.10;95533.22;5091583;28;20165;-76
2022/01/14 11:05:04;;;;;;;9.18;5.35;;;;;;;2.39;58.07;95525.16;5055989;28;20055;-76
2022/01/14 11:07:29;;;;;;;11.30;6.97;;;;;;;2.48;58.88;95518.84;5056568;28;20508;-76
2022/01/14 11:09:57;;;;;;;13.45;7.63;;;;;;;2.56;57.91;95501.41;5073258;28;20036;-76
2022/01/14 11:12:22;;;;;;;11.43;8.90;;;;;;;2.54;59.32;95487.00;5056650;28;20039;-76
2022/01/14 11:14:47;;;;;;;7.82;5.43;;;;;;;2.52;57.74;95487.03;5056584;28;20020;-76
2022/01/14 11:17:13;;;;;;;10.35;6.55;;;;;;;2.64;57.64;95485.69;5056447;28;20028;-76
2022/01/14 11:19:39;;;;;;;9.60;6.53;;;;;;;2.71;58.29;95474.31;5073099;28;20093;-76
2022/01/14 11:24:48;;;;;;;10.55;6.45;;;;;;;2.84;56.91;95467.75;5075900;28;20043;-76
2022/01/14 11:27:14;;;;;;;13.77;8.75;;;;;;;2.90;57.50;95461.53;5056376;28;20028;-76
2022/01/14 11:29:44;;;;;;;10.60;6.38;;;;;;;2.92;57.74;95446.88;5073402;28;20032;-76
2022/01/14 11:32:10;;;;;;;9.48;6.43;;;;;;;2.96;57.99;95438.19;5056607;28;20115;-78
2022/01/14 11:34:41;;;;;;;9.52;6.28;;;;;;;3.03;57.81;95429.28;5039684;28;20119;-75
2022/01/14 11:37:11;;;;;;;10.93;6.18;;;;;;;3.21;57.60;95437.94;5073173;28;20032;-75
2022/01/14 11:39:38;;;;;;;10.10;6.10;;;;;;;3.33;56.65;95437.38;5091038;28;20077;-75
2022/01/14 11:42:14;;;;;;;11.43;6.07;;;;;;;3.38;56.31;95437.19;5072916;28;20085;-75
2022/01/14 11:44:42;;;;;;;8.05;4.68;;;;;;;3.43;55.84;95419.84;5058060;28;20031;-75
2022/01/14 11:47:41;;;;;;;6.78;4.22;;;;;;;3.44;55.52;95415.53;5090824;28;20031;-75
2022/01/14 11:50:24;;;;;;;6.03;4.40;;;;;;;3.43;55.57;95408.75;5067852;28;20055;-75